Time;durP1;ratioP1;P1;durP2;ratioP2;P2;SDS_P1;SDS_P2;PMS_P1;PMS_P2;Temp;Humidity;BMP_temperature;BMP_pressure;BME280_temperature;BME280_humidity;BME280_pressure;Samples;Min_cycle;Max_cycle;Signal;HPM_P1;HPM_P2
2022/10/19 00:02:19;;;;;;;24.10;11.30;;;14.10;99.90;;;13.21;100.00;98321.13;5030042;28;20407;-68
2022/10/19 00:04:45;;;;;;;30.57;12.13;;;14.10;99.90;;;13.23;100.00;98308.38;5021351;28;20454;-68
2022/10/19 00:07:11;;;;;;;20.53;11.10;;;14.10;99.90;;;13.21;100.00;98310.47;5030156;28;20435;-68
2022/10/19 00:09:39;;;;;;;26.17;12.00;;;14.10;99.90;;;13.19;100.00;98312.56;5028729;28;20415;-68
2022/10/19 00:12:05;;;;;;;23.33;12.40;;;14.10;99.90;;;13.19;100.00;98307.25;5030213;28;20410;-68
2022/10/19 00:14:31;;;;;;;26.40;12.55;;;14.10;99.90;;;13.17;100.00;98309.34;5028314;28;20442;-68
2022/10/19 00:16:57;;;;;;;34.75;13.38;;;14.10;99.90;;;13.15;100.00;98306.97;5030185;28;20399;-68
2022/10/19 00:19:26;;;;;;;23.63;12.23;;;14.10;99.90;;;13.16;100.00;98307.72;5030196;28;20430;-68
2022/10/19 00:21:52;;;;;;;36.63;13.88;;;14.10;99.90;;;13.15;100.00;98299.00;5030164;28;20403;-68
2022/10/19 00:24:19;;;;;;;38.38;13.70;;;14.10;99.90;;;13.14;100.00;98297.38;5029464;28;20488;-67
2022/10/19 00:26:46;;;;;;;31.60;12.93;;;14.00;99.90;;;13.11;100.00;98291.69;5030033;28;20399;-68
2022/10/19 00:29:14;;;;;;;35.47;13.50;;;14.00;99.90;;;13.09;100.00;98297.25;5030113;28;20403;-68
2022/10/19 00:31:41;;;;;;;30.17;13.70;;;14.00;99.90;;;13.10;100.00;98300.72;5030074;28;20395;-68
2022/10/19 00:34:07;;;;;;;27.90;13.85;;;13.90;99.90;;;13.00;100.00;98298.75;5029452;28;20430;-68
2022/10/19 00:36:35;;;;;;;30.60;13.45;;;13.90;99.90;;;12.97;100.00;98301.88;5030005;28;20399;-68
2022/10/19 00:39:02;;;;;;;30.80;13.50;;;13.90;99.90;;;12.99;100.00;98301.63;5030032;28;20440;-68
2022/10/19 00:41:31;;;;;;;27.70;13.48;;;13.90;99.90;;;12.98;100.00;98300.03;5028672;28;20412;-69
2022/10/19 00:44:01;;;;;;;29.93;13.60;;;13.90;99.90;;;12.94;100.00;98302.34;5029403;28;20453;-68
2022/10/19 00:46:31;;;;;;;29.08;13.57;;;13.90;99.90;;;12.93;100.00;98306.03;5029848;28;20884;-68
2022/10/19 00:49:01;;;;;;;27.70;12.40;;;13.80;99.90;;;12.92;100.00;98306.31;5029986;28;20408;-68
2022/10/19 00:51:28;;;;;;;43.08;13.52;;;13.80;99.90;;;12.91;100.00;98313.47;5029903;28;20484;-68
2022/10/19 00:53:55;;;;;;;30.13;12.85;;;13.80;99.90;;;12.88;100.00;98311.28;5028065;28;20399;-68
2022/10/19 00:56:22;;;;;;;27.77;13.48;;;13.80;99.90;;;12.88;100.00;98311.28;5031456;28;20430;-69
2022/10/19 00:58:48;;;;;;;28.03;12.97;;;13.80;99.90;;;12.90;100.00;98316.38;5033426;28;20981;-68
2022/10/19 01:01:19;;;;;;;24.08;12.45;;;13.80;99.90;;;12.89;100.00;98309.44;5033559;28;20406;-66
2022/10/19 01:03:45;;;;;;;30.40;12.65;;;13.80;99.90;;;12.91;100.00;98307.34;5032802;28;20415;-68
2022/10/19 01:06:14;;;;;;;30.88;12.40;;;13.80;99.90;;;12.94;100.00;98309.50;5033236;28;20950;-67
2022/10/19 01:08:40;;;;;;;31.70;12.95;;;13.80;99.90;;;12.97;100.00;98309.03;5033283;28;20943;-67
2022/10/19 01:11:25;;;;;;;32.53;13.52;;;13.80;99.90;;;12.99;100.00;98305.09;5033256;28;20407;-67
2022/10/19 01:14:07;;;;;;;26.35;13.32;;;13.90;99.90;;;13.02;100.00;98301.94;5032802;28;20481;-67
2022/10/19 01:16:45;;;;;;;27.48;11.82;;;13.90;99.90;;;13.06;100.00;98310.25;5032956;28;20517;-68
2022/10/19 01:19:49;;;;;;;25.67;11.80;;;13.90;99.90;;;13.09;100.00;98304.41;5033195;28;20472;-67
2022/10/19 01:22:32;;;;;;;31.05;13.75;;;13.90;99.90;;;13.11;100.00;98304.97;5031859;28;20489;-67
2022/10/19 01:25:16;;;;;;;22.80;11.50;;;13.90;99.90;;;13.12;100.00;98302.09;5032329;28;20477;-67
2022/10/19 01:28:10;;;;;;;26.60;12.63;;;14.00;99.90;;;13.18;100.00;98303.00;5032971;28;20403;-67
2022/10/19 01:30:48;;;;;;;24.57;12.47;;;14.00;99.90;;;13.22;100.00;98298.81;5033008;28;20403;-66
2022/10/19 01:33:30;;;;;;;25.92;13.52;;;14.10;99.90;;;13.22;100.00;98288.16;5030975;28;20407;-67
2022/10/19 01:36:07;;;;;;;29.42;12.63;;;14.10;99.90;;;13.22;100.00;98290.03;5032792;28;20468;-67
2022/10/19 01:38:40;;;;;;;23.50;12.95;;;14.00;99.90;;;13.24;100.00;98286.06;5032784;28;20506;-66
2022/10/19 01:41:15;;;;;;;23.85;12.93;;;14.10;99.90;;;13.31;100.00;98285.88;5031546;28;20884;-67
2022/10/19 01:43:45;;;;;;;26.58;13.52;;;14.10;99.90;;;13.34;100.00;98278.22;5032106;28;20451;-67
2022/10/19 01:46:19;;;;;;;24.70;12.77;;;14.20;99.90;;;13.36;100.00;98278.78;5031201;28;20486;-67
2022/10/19 01:48:53;;;;;;;33.57;13.17;;;14.20;99.90;;;13.39;100.00;98283.59;5032654;28;20918;-67
2022/10/19 01:51:24;;;;;;;28.48;12.95;;;14.20;99.90;;;13.41;100.00;98281.50;5032588;28;20408;-67
2022/10/19 01:53:54;;;;;;;23.00;12.32;;;14.30;99.90;;;13.43;100.00;98271.41;5032023;28;20429;-69
2022/10/19 01:56:25;;;;;;;28.77;12.00;;;14.30;99.90;;;13.46;100.00;98270.91;5032445;28;20399;-67
2022/10/19 01:58:56;;;;;;;22.95;11.90;;;14.30;99.90;;;13.49;100.00;98267.75;5031099;28;20514;-67
2022/10/19 02:01:28;;;;;;;21.38;11.63;;;14.30;99.90;;;13.57;100.00;98272.66;5032340;28;20399;-67
2022/10/19 02:03:56;;;;;;;26.63;13.32;;;14.30;99.90;;;13.60;100.00;98267.91;5031848;28;20943;-68
2022/10/19 02:06:22;;;;;;;25.63;13.15;;;14.40;99.90;;;13.62;100.00;98271.09;5032212;28;20403;-67
2022/10/19 02:08:52;;;;;;;24.77;12.88;;;14.40;99.90;;;13.67;100.00;98273.81;5031276;28;20434;-68
2022/10/19 02:11:20;;;;;;;28.58;13.88;;;14.50;99.90;;;13.70;100.00;98271.47;5032240;28;20414;-68
2022/10/19 02:13:53;;;;;;;28.15;13.13;;;14.50;99.90;;;13.71;100.00;98269.59;5031614;28;20418;-68
2022/10/19 02:16:25;;;;;;;33.70;15.07;;;14.50;99.90;;;13.73;100.00;98270.16;5032107;28;20407;-68
2022/10/19 02:18:53;;;;;;;29.55;14.35;;;14.50;99.90;;;13.73;100.00;98272.81;5031967;28;20415;-68
2022/10/19 02:21:19;;;;;;;47.35;16.98;;;14.50;99.90;;;13.73;100.00;98263.00;5032086;28;20505;-68
2022/10/19 02:23:45;;;;;;;40.40;15.63;;;14.50;99.90;;;13.74;100.00;98253.97;5031284;28;20856;-68
2022/10/19 02:26:11;;;;;;;32.92;15.52;;;14.60;99.90;;;13.75;100.00;98258.22;5030451;28;20427;-68
2022/10/19 02:28:38;;;;;;;41.38;15.82;;;14.60;99.90;;;13.77;100.00;98250.78;5031714;28;20970;-68
2022/10/19 02:31:04;;;;;;;40.08;14.82;;;14.60;99.90;;;13.81;100.00;98254.56;5031764;28;20403;-68
2022/10/19 02:33:32;;;;;;;38.85;15.45;;;14.60;99.90;;;13.85;100.00;98255.66;5031136;28;20912;-67
2022/10/19 02:35:59;;;;;;;55.53;18.33;;;14.60;99.90;;;13.88;100.00;98251.69;5031625;28;20408;-67
2022/10/19 02:38:26;;;;;;;42.67;17.90;;;14.70;99.90;;;13.93;100.00;98249.09;5031615;28;20431;-67
2022/10/19 02:41:01;;;;;;;52.70;20.33;;;14.70;99.90;;;13.92;100.00;98244.81;5031524;28;20451;-67
2022/10/19 02:43:30;;;;;;;51.13;19.70;;;14.70;99.90;;;13.92;100.00;98236.81;5031081;28;20623;-67
2022/10/19 02:46:03;;;;;;;59.72;19.55;;;14.70;99.90;;;13.92;100.00;98253.59;5031376;28;20430;-67
2022/10/19 02:48:32;;;;;;;62.73;19.90;;;14.70;99.90;;;13.91;100.00;98245.84;5031400;28;20410;-67
2022/10/19 02:50:58;;;;;;;55.95;19.88;;;14.70;99.90;;;13.90;100.00;98236.28;5031323;28;20395;-67
2022/10/19 02:53:24;;;;;;;66.13;20.63;;;14.70;99.90;;;13.91;100.00;98238.69;5030844;28;20911;-67
2022/10/19 02:55:51;;;;;;;59.72;21.92;;;14.70;99.90;;;13.92;100.00;98234.16;5031222;28;20411;-68
2022/10/19 02:58:17;;;;;;;60.08;21.05;;;14.70;99.90;;;13.94;100.00;98232.88;5031194;28;20892;-68
2022/10/19 03:00:43;;;;;;;61.20;22.20;;;14.70;99.90;;;13.95;100.00;98233.66;5031102;28;20414;-68
2022/10/19 03:03:09;;;;;;;63.00;22.45;;;14.70;99.90;;;13.95;100.00;98226.50;5030592;28;20419;-68
2022/10/19 03:05:36;;;;;;;56.57;21.47;;;14.70;99.90;;;13.97;100.00;98223.59;5031001;28;20495;-68
2022/10/19 03:08:03;;;;;;;71.97;23.63;;;14.80;99.90;;;14.01;100.00;98223.88;5031192;28;20403;-68
2022/10/19 03:10:29;;;;;;;64.03;22.67;;;14.80;99.90;;;14.00;100.00;98217.75;5030994;28;20407;-68
2022/10/19 03:12:57;;;;;;;63.92;21.67;;;14.80;99.90;;;14.03;100.00;98221.75;5030590;28;20576;-68
2022/10/19 03:15:26;;;;;;;62.80;21.70;;;14.80;99.90;;;14.03;100.00;98221.75;5030692;28;20403;-68
2022/10/19 03:17:52;;;;;;;65.55;22.15;;;14.80;99.90;;;14.04;100.00;98218.06;5030875;28;20478;-67
2022/10/19 03:20:18;;;;;;;65.13;20.98;;;14.80;99.90;;;14.04;100.00;98210.88;5030590;28;20403;-68
2022/10/19 03:22:45;;;;;;;66.95;20.98;;;14.80;99.90;;;14.06;100.00;98207.97;5029253;28;20413;-68
2022/10/19 03:25:11;;;;;;;60.97;20.52;;;14.80;99.90;;;14.06;100.00;98206.06;5030379;28;20426;-67
2022/10/19 03:27:37;;;;;;;61.10;20.63;;;14.90;99.90;;;14.08;100.00;98209.28;5030668;28;20410;-67
2022/10/19 03:30:04;;;;;;;73.90;23.97;;;14.90;99.90;;;14.08;100.00;98208.50;5030672;28;20942;-67
2022/10/19 03:32:30;;;;;;;77.05;24.83;;;14.90;99.90;;;14.07;100.00;98215.66;5030647;28;20877;-67
2022/10/19 03:34:56;;;;;;;77.07;23.98;;;14.80;99.90;;;14.07;100.00;98209.53;5028768;28;20477;-67
2022/10/19 03:37:22;;;;;;;74.05;23.13;;;14.90;99.90;;;14.08;100.00;98211.16;5030751;28;20406;-67
2022/10/19 03:39:49;;;;;;;76.05;23.52;;;14.80;99.90;;;14.08;100.00;98211.16;5029240;28;20474;-68
2022/10/19 03:42:15;;;;;;;75.97;22.30;;;14.90;99.90;;;14.10;100.00;98206.38;5030497;28;20411;-68
2022/10/19 03:44:41;;;;;;;74.20;22.70;;;14.90;99.90;;;14.10;100.00;98201.06;5029829;28;20421;-68
2022/10/19 03:47:06;;;;;;;73.55;22.63;;;14.90;99.90;;;14.10;100.00;98203.72;5027947;28;20828;-68
2022/10/19 03:49:32;;;;;;;69.53;23.42;;;14.90;99.90;;;14.10;100.00;98203.72;5028394;28;20414;-68
2022/10/19 03:51:58;;;;;;;73.80;24.70;;;14.90;99.90;;;14.10;100.00;98204.53;5030427;28;20442;-67
2022/10/19 03:54:24;;;;;;;83.03;27.10;;;14.90;99.90;;;14.06;100.00;98198.09;5029300;28;20415;-68
2022/10/19 03:56:51;;;;;;;74.30;24.45;;;14.90;99.90;;;14.07;100.00;98194.38;5030403;28;20407;-68
2022/10/19 03:59:17;;;;;;;75.83;24.47;;;14.90;99.90;;;14.07;100.00;98199.69;5030290;28;20403;-68
2022/10/19 04:01:45;;;;;;;60.63;20.80;;;14.80;99.90;;;14.10;100.00;98201.06;5028892;28;20922;-68
2022/10/19 04:04:13;;;;;;;71.72;24.38;;;14.90;99.90;;;14.10;100.00;98201.06;5027887;28;20499;-69
2022/10/19 04:06:41;;;;;;;68.50;24.67;;;14.90;99.90;;;14.12;100.00;98206.94;5029211;28;20399;-66
2022/10/19 04:09:11;;;;;;;68.95;24.65;;;14.90;99.90;;;14.11;100.00;98203.47;5029707;28;20407;-67
2022/10/19 04:11:37;;;;;;;57.03;22.23;;;14.90;99.90;;;14.10;100.00;98201.88;5027063;28;20406;-66
2022/10/19 04:14:05;;;;;;;54.93;21.00;;;14.90;99.90;;;14.11;100.00;98210.66;5028976;28;20411;-66
2022/10/19 04:16:32;;;;;;;65.13;23.80;;;14.90;99.90;;;14.13;100.00;98201.38;5029779;28;20407;-68
2022/10/19 04:18:59;;;;;;;66.10;24.70;;;14.90;99.90;;;14.20;100.00;98204.63;5027217;28;20461;-68
2022/10/19 04:21:27;;;;;;;60.00;23.88;;;15.00;99.90;;;14.18;100.00;98206.72;5029639;28;20403;-68
2022/10/19 04:23:57;;;;;;;57.55;25.10;;;15.00;99.90;;;14.08;100.00;98197.84;5028530;28;20419;-68
2022/10/19 04:26:23;;;;;;;60.67;26.23;;;14.90;99.90;;;14.08;100.00;98203.97;5028043;28;20467;-68
2022/10/19 04:28:49;;;;;;;53.67;25.05;;;14.90;99.90;;;14.06;100.00;98195.44;5028790;28;20407;-68
2022/10/19 04:31:16;;;;;;;48.33;21.92;;;14.80;99.90;;;14.07;100.00;98197.03;5029975;28;20418;-67
2022/10/19 04:33:42;;;;;;;49.45;22.42;;;14.90;99.90;;;14.08;100.00;98195.97;5032434;28;20399;-68
2022/10/19 04:36:11;;;;;;;57.43;24.80;;;14.90;99.90;;;14.09;100.00;98200.25;5033178;28;20439;-68
2022/10/19 04:38:37;;;;;;;48.28;22.58;;;14.90;99.90;;;14.12;100.00;98196.28;5032642;28;20450;-67
2022/10/19 04:41:06;;;;;;;48.75;21.52;;;14.90;99.90;;;14.13;100.00;98192.59;5030247;28;20407;-67
2022/10/19 04:43:32;;;;;;;48.08;21.73;;;14.90;99.90;;;14.13;100.00;98204.03;5032916;28;20415;-67
2022/10/19 04:46:03;;;;;;;50.72;22.08;;;14.90;99.90;;;14.13;100.00;98190.72;5033514;28;20411;-67
2022/10/19 04:48:30;;;;;;;49.58;22.60;;;14.90;99.90;;;14.12;100.00;98193.63;5033760;28;20402;-68
2022/10/19 04:50:56;;;;;;;50.33;22.08;;;14.90;99.90;;;14.12;100.00;98196.28;5032272;28;20399;-67
2022/10/19 04:53:23;;;;;;;46.63;21.88;;;14.90;99.90;;;14.11;100.00;98197.34;5032693;28;20490;-67
2022/10/19 04:55:49;;;;;;;53.75;23.83;;;14.90;99.90;;;14.08;100.00;98188.00;5025639;28;20921;-67
2022/10/19 04:58:15;;;;;;;50.90;23.63;;;14.90;99.90;;;14.06;100.00;98190.09;5023710;28;20482;-67
2022/10/19 05:00:41;;;;;;;51.10;23.55;;;14.90;99.90;;;14.07;100.00;98191.72;5022025;28;20467;-68
2022/10/19 05:03:07;;;;;;;58.85;26.25;;;14.80;99.90;;;14.09;100.00;98200.25;5023801;28;20421;-67
2022/10/19 05:05:34;;;;;;;49.10;23.90;;;14.90;99.90;;;14.11;100.00;98200.00;5027881;28;20445;-68
2022/10/19 05:08:01;;;;;;;62.40;30.17;;;14.90;99.90;;;14.08;100.00;98197.84;5031263;28;20893;-67
2022/10/19 05:10:27;;;;;;;61.85;29.27;;;14.90;99.90;;;14.11;100.00;98202.66;5032694;28;20407;-68
2022/10/19 05:12:53;;;;;;;66.28;29.27;;;14.90;99.90;;;14.10;100.00;98196.53;5032599;28;20399;-68
2022/10/19 05:15:20;;;;;;;69.72;31.63;;;14.90;99.90;;;14.08;100.00;98195.97;5032472;28;20410;-68
2022/10/19 05:17:46;;;;;;;64.07;31.70;;;14.90;99.90;;;14.07;100.00;98204.22;5032825;28;20881;-68
2022/10/19 05:20:12;;;;;;;71.95;31.85;;;14.80;99.90;;;14.10;100.00;98199.19;5031839;28;20459;-67
2022/10/19 05:22:39;;;;;;;67.80;30.77;;;14.90;99.90;;;14.09;100.00;98202.91;5027017;28;20428;-68
2022/10/19 05:25:07;;;;;;;64.05;29.70;;;14.90;99.90;;;14.12;100.00;98193.63;5056060;22;20441;-71
2022/10/19 05:27:32;;;;;;;65.33;30.60;;;14.90;99.90;;;14.13;100.00;98195.25;5052595;28;20407;-71
2022/10/19 05:29:58;;;;;;;62.25;28.52;;;14.90;99.90;;;14.14;100.00;98191.50;5052711;28;20406;-73
2022/10/19 05:32:25;;;;;;;66.05;30.40;;;14.90;99.90;;;14.14;100.00;98194.97;5052508;28;20405;-71
2022/10/19 05:34:51;;;;;;;63.78;28.10;;;14.90;99.90;;;14.15;100.00;98193.91;5041064;28;20502;-71
2022/10/19 05:37:17;;;;;;;59.60;27.88;;;14.90;99.90;;;14.15;100.00;98195.78;5031392;28;20509;-71
2022/10/19 05:39:45;;;;;;;60.55;26.45;;;14.90;99.90;;;14.17;100.00;98196.31;5032729;28;20403;-71
2022/10/19 05:42:10;;;;;;;72.25;26.33;;;14.90;99.90;;;14.18;100.00;98196.09;5032379;28;20457;-73
2022/10/19 05:44:36;;;;;;;75.53;26.40;;;15.00;99.90;;;14.19;100.00;98191.56;5032014;28;20450;-73
2022/10/19 05:47:02;;;;;;;67.93;23.98;;;15.00;99.90;;;14.19;100.00;98180.91;5032408;28;20439;-70
2022/10/19 05:49:29;;;;;;;69.18;24.77;;;15.00;99.90;;;14.19;100.00;98186.22;5032589;28;20435;-71
2022/10/19 05:51:55;;;;;;;72.53;24.48;;;15.00;99.90;;;14.19;100.00;98183.56;5032416;28;20426;-71
2022/10/19 05:54:20;;;;;;;73.38;26.35;;;15.00;99.90;;;14.20;100.00;98195.84;5031994;28;20411;-70
2022/10/19 05:56:48;;;;;;;64.60;24.88;;;15.00;99.90;;;14.18;100.00;98198.75;5032191;28;20411;-70
2022/10/19 05:59:18;;;;;;;73.37;25.93;;;15.00;99.90;;;14.18;100.00;98198.75;5031791;28;20415;-70
2022/10/19 06:01:44;;;;;;;65.97;27.38;;;15.00;99.90;;;14.17;100.00;98201.66;5032332;28;20406;-70
2022/10/19 06:04:12;;;;;;;67.40;27.67;;;14.90;99.90;;;14.16;100.00;98198.19;5031452;28;20429;-70
2022/10/19 06:06:39;;;;;;;65.45;30.20;;;15.00;99.90;;;14.11;100.00;98203.47;5032109;28;20406;-71
2022/10/19 06:09:05;;;;;;;57.45;28.52;;;14.90;99.90;;;14.10;100.00;98201.88;5031994;28;20399;-73
2022/10/19 06:11:35;;;;;;;54.05;27.58;;;14.90;99.90;;;14.09;100.00;98210.91;5030645;28;20908;-71
2022/10/19 06:14:06;;;;;;;56.38;28.73;;;14.90;99.90;;;14.09;100.00;98204.78;5031510;28;20741;-71
2022/10/19 06:16:32;;;;;;;54.58;27.73;;;14.90;99.90;;;14.11;100.00;98211.47;5031775;28;20481;-71
2022/10/19 06:18:58;;;;;;;59.13;28.17;;;14.90;99.90;;;14.11;100.00;98208.81;5031861;28;20411;-71
2022/10/19 06:21:27;;;;;;;56.00;27.88;;;14.90;99.90;;;14.13;100.00;98205.91;5031590;28;20434;-71
2022/10/19 06:23:56;;;;;;;50.78;26.08;;;14.90;99.90;;;14.14;100.00;98204.81;5030958;28;20936;-71
2022/10/19 06:26:23;;;;;;;54.53;28.38;;;14.90;99.90;;;14.14;100.00;98197.63;5031682;28;20796;-71
2022/10/19 06:28:53;;;;;;;61.58;29.83;;;14.90;99.90;;;14.16;100.00;98205.38;5031712;28;20839;-71
2022/10/19 06:31:21;;;;;;;52.60;26.73;;;14.90;99.90;;;14.17;100.00;98206.97;5031605;28;20407;-71
2022/10/19 06:33:47;;;;;;;56.20;27.67;;;15.00;99.90;;;14.18;100.00;98205.94;5029750;28;20955;-71
2022/10/19 06:36:15;;;;;;;46.45;26.02;;;14.90;99.90;;;14.20;100.00;98214.47;5031489;28;20415;-71
2022/10/19 06:38:41;;;;;;;50.93;25.33;;;15.00;99.90;;;14.22;100.00;98215.00;5031551;28;20403;-71
2022/10/19 06:41:08;;;;;;;55.25;29.20;;;15.00;99.90;;;14.21;100.00;98216.06;5031357;28;20430;-71
2022/10/19 06:43:35;;;;;;;52.83;28.55;;;15.00;99.90;;;14.21;100.00;98218.72;5030913;28;20445;-71
2022/10/19 06:46:04;;;;;;;62.78;30.35;;;15.00;99.90;;;14.20;100.00;98214.47;5031228;28;20770;-71
2022/10/19 06:48:31;;;;;;;52.88;26.25;;;15.00;99.90;;;14.20;100.00;98225.94;5031328;28;20403;-71
2022/10/19 06:50:58;;;;;;;48.90;26.27;;;15.00;99.90;;;14.21;100.00;98230.16;5031345;28;20486;-71
2022/10/19 06:53:24;;;;;;;53.72;27.63;;;15.00;99.90;;;14.22;100.00;98220.31;5030489;28;20446;-71
2022/10/19 06:55:50;;;;;;;51.97;26.75;;;15.00;99.90;;;14.25;100.00;98222.50;5030976;28;20403;-71
2022/10/19 06:58:16;;;;;;;49.80;26.02;;;15.00;99.90;;;14.26;100.00;98216.91;5031170;28;20399;-71
2022/10/19 07:00:42;;;;;;;54.97;26.23;;;15.00;99.90;;;14.27;100.00;98223.03;5030813;28;20769;-71
2022/10/19 07:03:08;;;;;;;47.50;24.60;;;15.00;99.90;;;14.28;100.00;98225.44;5030464;28;20407;-71
2022/10/19 07:05:35;;;;;;;43.30;22.60;;;15.10;99.90;;;14.30;100.00;98223.31;5030989;28;20423;-71
2022/10/19 07:08:01;;;;;;;45.88;24.58;;;15.10;99.90;;;14.33;100.00;98219.38;5031057;28;20808;-71
2022/10/19 07:10:26;;;;;;;48.28;25.25;;;15.10;99.90;;;14.33;100.00;98228.16;5030916;28;20410;-71
2022/10/19 07:12:54;;;;;;;41.83;23.00;;;15.10;99.90;;;14.33;100.00;98230.03;5030571;28;20430;-71
2022/10/19 07:15:20;;;;;;;42.25;22.40;;;15.10;99.90;;;14.32;100.00;98231.06;5030725;28;20804;-71
2022/10/19 07:17:46;;;;;;;46.28;24.52;;;15.10;99.90;;;14.25;100.00;98233.16;5030892;28;20406;-71
2022/10/19 07:20:12;;;;;;;41.80;24.02;;;15.10;99.90;;;14.25;100.00;98228.63;5029536;28;20931;-71
2022/10/19 07:22:39;;;;;;;41.63;23.20;;;15.00;99.90;;;14.27;100.00;98231.84;5030794;28;20789;-71
2022/10/19 07:25:06;;;;;;;42.70;22.33;;;15.00;99.90;;;14.31;100.00;98229.47;5030132;28;20892;-71
2022/10/19 07:27:35;;;;;;;42.38;23.02;;;15.10;99.90;;;14.32;100.00;98226.53;5030603;28;20465;-71
2022/10/19 07:30:01;;;;;;;41.35;22.50;;;15.10;99.90;;;14.33;100.00;98222.84;5030779;28;20478;-71
2022/10/19 07:32:28;;;;;;;45.13;23.75;;;15.10;99.90;;;14.36;100.00;98226.06;5030287;28;20819;-70
2022/10/19 07:34:54;;;;;;;41.95;22.95;;;15.10;99.90;;;14.39;100.00;98222.91;5030074;28;20881;-71
2022/10/19 07:37:20;;;;;;;43.63;22.70;;;15.10;99.90;;;14.42;100.00;98225.88;5030666;28;20399;-71
2022/10/19 07:39:47;;;;;;;41.83;22.83;;;15.20;99.90;;;14.44;100.00;98222.91;5030513;28;20895;-71
2022/10/19 07:42:13;;;;;;;35.35;21.45;;;15.20;99.90;;;14.45;100.00;98229.84;5030153;28;20403;-71
2022/10/19 07:44:39;;;;;;;37.58;22.85;;;15.20;99.90;;;14.42;100.00;98227.72;5029742;28;20422;-71
2022/10/19 07:47:05;;;;;;;35.90;23.05;;;15.20;99.90;;;14.50;100.00;98225.41;5030531;28;20399;-71
2022/10/19 07:49:31;;;;;;;38.10;22.88;;;15.30;99.90;;;14.52;100.00;98233.09;5030486;28;20430;-71
2022/10/19 07:51:57;;;;;;;34.57;20.80;;;15.30;99.90;;;14.53;100.00;98222.19;5030386;28;20955;-71
2022/10/19 07:54:23;;;;;;;35.20;21.48;;;15.30;99.90;;;14.55;100.00;98228.09;5029839;28;20461;-71
2022/10/19 07:56:51;;;;;;;35.03;20.63;;;15.30;99.90;;;14.56;100.00;98221.72;5030233;28;20403;-71
2022/10/19 07:59:16;;;;;;;32.28;19.00;;;15.30;99.90;;;14.59;100.00;98223.84;5029077;28;20486;-71
2022/10/19 08:01:43;;;;;;;31.27;18.60;;;15.30;99.90;;;14.52;100.00;98231.25;5030304;28;20409;-71
2022/10/19 08:04:09;;;;;;;32.30;20.07;;;15.30;99.90;;;14.64;100.00;98226.56;5028356;28;20422;-71
2022/10/19 08:06:37;;;;;;;31.60;19.13;;;15.40;99.90;;;14.52;100.00;98228.59;5031950;28;20478;-71
2022/10/19 08:09:03;;;;;;;27.98;18.23;;;15.30;99.90;;;14.62;100.00;98226.00;5034457;28;20780;-71
2022/10/19 08:11:33;;;;;;;28.33;16.88;;;15.40;99.90;;;14.70;100.00;98227.38;5034268;28;20981;-71
2022/10/19 08:14:03;;;;;;;25.33;16.53;;;15.40;99.90;;;14.76;100.00;98226.34;5032445;28;20898;-71
2022/10/19 08:16:32;;;;;;;23.03;15.70;;;15.50;99.90;;;14.82;100.00;98227.19;5034319;28;20676;-71
2022/10/19 08:19:01;;;;;;;22.38;15.23;;;15.50;99.90;;;14.86;100.00;98229.09;5032989;28;20418;-71
2022/10/19 08:21:28;;;;;;;25.67;16.83;;;15.60;99.90;;;14.81;100.00;98223.72;5034142;28;20395;-71
2022/10/19 08:23:55;;;;;;;23.13;15.57;;;15.50;99.90;;;14.86;100.00;98218.44;5033389;28;20425;-72
2022/10/19 08:26:21;;;;;;;23.20;15.48;;;15.60;99.90;;;14.87;100.00;98220.03;5034043;28;20761;-71
2022/10/19 08:28:47;;;;;;;20.98;14.75;;;15.60;99.90;;;14.92;100.00;98220.06;5034118;28;20399;-71
2022/10/19 08:31:17;;;;;;;23.37;15.27;;;15.60;99.90;;;14.94;100.00;98217.94;5033993;28;20404;-71
2022/10/19 08:33:43;;;;;;;25.63;16.90;;;15.70;99.90;;;14.92;100.00;98219.25;5033518;28;20474;-71
2022/10/19 08:36:11;;;;;;;21.23;14.57;;;15.70;99.90;;;14.94;100.00;98215.28;5033846;28;20437;-71
2022/10/19 08:38:38;;;;;;;20.83;14.00;;;15.70;99.90;;;14.96;100.00;98207.03;5033855;28;20889;-71
2022/10/19 08:41:18;;;;;;;19.30;14.23;;;15.70;99.90;;;14.92;100.00;98217.38;5032513;28;20430;-71
2022/10/19 08:44:17;;;;;;;17.67;12.27;;;15.60;99.90;;;15.00;100.00;98218.75;5033517;28;20929;-71
2022/10/19 08:46:55;;;;;;;18.70;13.07;;;15.70;99.90;;;14.93;100.00;98223.53;5033689;28;20486;-71
2022/10/19 08:49:24;;;;;;;16.77;12.90;;;15.60;99.90;;;14.85;100.00;98227.47;5033748;28;20468;-71
2022/10/19 08:51:56;;;;;;;20.02;12.50;;;15.60;99.90;;;14.90;100.00;98226.69;5033664;28;20403;-71
2022/10/19 08:54:28;;;;;;;17.98;11.75;;;15.60;99.90;;;14.93;100.00;98226.19;5033163;28;20500;-71
2022/10/19 08:57:09;;;;;;;18.20;12.38;;;15.70;99.90;;;14.96;100.00;98223.03;5033514;28;20498;-71
2022/10/19 08:59:44;;;;;;;18.02;12.00;;;15.70;99.90;;;14.98;100.00;98226.22;5033579;28;20437;-71
2022/10/19 09:02:18;;;;;;;19.88;12.95;;;15.70;99.90;;;14.99;100.00;98227.81;5033526;28;20426;-71
2022/10/19 09:04:49;;;;;;;16.95;12.13;;;15.70;99.90;;;14.96;100.00;98221.13;5031505;28;20525;-71
2022/10/19 09:07:25;;;;;;;22.27;13.02;;;15.70;99.90;;;14.91;100.00;98215.78;5033462;28;20494;-71
2022/10/19 09:09:58;;;;;;;20.35;12.65;;;15.60;99.90;;;14.98;100.00;98218.22;5033352;28;20869;-71
2022/10/19 09:12:36;;;;;;;20.20;13.45;;;15.70;99.90;;;14.98;100.00;98204.88;5033362;28;20395;-71
2022/10/19 09:15:06;;;;;;;19.77;13.15;;;15.70;99.90;;;14.97;100.00;98203.28;5032773;28;20406;-71
2022/10/19 09:17:33;;;;;;;19.52;12.90;;;15.70;99.90;;;14.96;100.00;98209.69;5032674;28;20426;-71
2022/10/19 09:20:14;;;;;;;17.57;11.83;;;15.70;99.90;;;14.98;100.00;98212.88;5031857;28;20410;-71
2022/10/19 09:22:42;;;;;;;17.48;11.82;;;15.70;99.90;;;14.93;100.00;98204.88;5032792;28;20718;-71
2022/10/19 09:25:17;;;;;;;15.32;10.88;;;15.60;99.90;;;14.95;100.00;98208.88;5032446;28;20430;-71
2022/10/19 09:27:47;;;;;;;17.45;10.57;;;15.70;99.90;;;14.93;100.00;98207.53;5032999;28;20407;-71
2022/10/19 09:30:18;;;;;;;16.40;10.37;;;15.60;99.90;;;14.97;100.00;98209.41;5032887;28;20449;-71
2022/10/19 09:32:48;;;;;;;17.45;10.93;;;15.70;99.90;;;14.91;100.00;98201.66;5032788;28;20399;-71
2022/10/19 09:35:25;;;;;;;15.35;10.02;;;15.60;99.90;;;14.95;100.00;98208.88;5032585;28;20442;-71
2022/10/19 09:37:51;;;;;;;14.38;9.35;;;15.70;99.90;;;14.97;100.00;98204.06;5032433;28;20426;-71
2022/10/19 09:40:20;;;;;;;15.73;10.30;;;15.70;99.90;;;15.02;100.00;98208.66;5032714;28;20410;-72
2022/10/19 09:42:50;;;;;;;13.05;8.57;;;15.70;99.90;;;15.05;100.00;98206.25;5032238;28;20425;-71
2022/10/19 09:45:24;;;;;;;15.70;10.65;;;15.80;99.90;;;15.10;100.00;98205.50;5032496;28;21009;-71
2022/10/19 09:47:52;;;;;;;13.63;10.52;;;15.80;99.90;;;15.06;100.00;98207.88;5032613;28;20873;-71
2022/10/19 09:50:21;;;;;;;21.10;11.68;;;15.80;99.90;;;15.03;100.00;98211.06;5032604;28;20418;-71
2022/10/19 09:52:48;;;;;;;15.75;10.40;;;15.80;99.90;;;14.99;100.00;98212.63;5032182;28;20430;-71
2022/10/19 09:55:27;;;;;;;14.50;10.13;;;15.70;99.90;;;14.95;100.00;98210.75;5032300;28;20399;-71
2022/10/19 09:58:05;;;;;;;14.20;10.50;;;15.70;99.90;;;14.95;100.00;98210.75;5032349;28;20403;-71
2022/10/19 10:00:37;;;;;;;14.45;10.68;;;15.70;99.90;;;14.97;100.00;98206.75;5032340;28;20403;-71
2022/10/19 10:03:06;;;;;;;14.13;10.57;;;15.70;99.90;;;15.03;100.00;98207.59;5031958;28;20880;-71
2022/10/19 10:05:36;;;;;;;11.38;8.93;;;15.70;99.90;;;15.05;100.00;98213.44;5031929;28;20415;-71
2022/10/19 10:08:04;;;;;;;10.63;8.60;;;15.80;99.90;;;15.04;100.00;98201.97;5032214;28;20419;-71